sensor_id;sensor_type;location;lat;lon;timestamp;pressure;altitude;pressure_sealevel;temperature
73673;BMP280;61972;19.480;-99.240;2022-11-20T00:01:37;77613.34;;;26.45
73673;BMP280;61972;19.480;-99.240;2022-11-20T00:04:12;77616.91;;;26.44
73673;BMP280;61972;19.480;-99.240;2022-11-20T00:06:38;77622.31;;;26.46
73673;BMP280;61972;19.480;-99.240;2022-11-20T00:09:04;77631.84;;;26.48
73673;BMP280;61972;19.480;-99.240;2022-11-20T00:11:31;77638.19;;;26.49
73673;BMP280;61972;19.480;-99.240;2022-11-20T00:13:59;77647.69;;;26.50
73673;BMP280;61972;19.480;-99.240;2022-11-20T00:16:28;77655.56;;;26.50
73673;BMP280;61972;19.480;-99.240;2022-11-20T00:18:54;77655.56;;;26.50
73673;BMP280;61972;19.480;-99.240;2022-11-20T00:21:22;77649.59;;;26.47
73673;BMP280;61972;19.480;-99.240;2022-11-20T00:23:49;77662.72;;;26.47
73673;BMP280;61972;19.480;-99.240;2022-11-20T00:26:18;77672.63;;;26.47
73673;BMP280;61972;19.480;-99.240;2022-11-20T00:28:49;77678.44;;;26.47
73673;BMP280;61972;19.480;-99.240;2022-11-20T00:31:16;77683.66;;;26.47
73673;BMP280;61972;19.480;-99.240;2022-11-20T00:33:43;77686.69;;;26.45
73673;BMP280;61972;19.480;-99.240;2022-11-20T00:36:15;77695.91;;;26.42
73673;BMP280;61972;19.480;-99.240;2022-11-20T00:38:45;77697.97;;;26.41
73673;BMP280;61972;19.480;-99.240;2022-11-20T00:41:14;77696.47;;;26.42
73673;BMP280;61972;19.480;-99.240;2022-11-20T00:43:41;77704.34;;;26.42
73673;BMP280;61972;19.480;-99.240;2022-11-20T00:46:18;77703.22;;;26.41
73673;BMP280;61972;19.480;-99.240;2022-11-20T00:48:45;77714.81;;;26.42
73673;BMP280;61972;19.480;-99.240;2022-11-20T00:51:12;77712.03;;;26.39
73673;BMP280;61972;19.480;-99.240;2022-11-20T00:53:39;77725.69;;;26.40
73673;BMP280;61972;19.480;-99.240;2022-11-20T00:56:09;77734.66;;;26.41
73673;BMP280;61972;19.480;-99.240;2022-11-20T00:58:40;77732.44;;;26.39
73673;BMP280;61972;19.480;-99.240;2022-11-20T01:01:08;77750.78;;;26.39
73673;BMP280;61972;19.480;-99.240;2022-11-20T01:03:38;77752.28;;;26.38
73673;BMP280;61972;19.480;-99.240;2022-11-20T01:06:09;77763.88;;;26.39
73673;BMP280;61972;19.480;-99.240;2022-11-20T01:08:39;77762.75;;;26.38
73673;BMP280;61972;19.480;-99.240;2022-11-20T01:11:14;77764.25;;;26.37
73673;BMP280;61972;19.480;-99.240;2022-11-20T01:13:44;77772.13;;;26.37
73673;BMP280;61972;19.480;-99.240;2022-11-20T01:16:16;77773.63;;;26.36
73673;BMP280;61972;19.480;-99.240;2022-11-20T01:18:46;77781.50;;;26.36
73673;BMP280;61972;19.480;-99.240;2022-11-20T01:21:15;77783.16;;;26.37
73673;BMP280;61972;19.480;-99.240;2022-11-20T01:23:50;77793.63;;;26.37
73673;BMP280;61972;19.480;-99.240;2022-11-20T01:26:37;77798.88;;;26.37
73673;BMP280;61972;19.480;-99.240;2022-11-20T01:29:08;77811.41;;;26.37
73673;BMP280;61972;19.480;-99.240;2022-11-20T01:31:36;77811.41;;;26.37
73673;BMP280;61972;19.480;-99.240;2022-11-20T01:34:09;77816.28;;;26.39
73673;BMP280;61972;19.480;-99.240;2022-11-20T01:36:36;77820.97;;;26.38
73673;BMP280;61972;19.480;-99.240;2022-11-20T01:39:05;77817.22;;;26.37
73673;BMP280;61972;19.480;-99.240;2022-11-20T01:41:33;77817.75;;;26.38
73673;BMP280;61972;19.480;-99.240;2022-11-20T01:44:22;77830.13;;;26.35
73673;BMP280;61972;19.480;-99.240;2022-11-20T01:47:08;77832.22;;;26.34
73673;BMP280;61972;19.480;-99.240;2022-11-20T01:50:05;77842.53;;;26.32
73673;BMP280;61972;19.480;-99.240;2022-11-20T01:52:42;77848.16;;;26.30
73673;BMP280;61972;19.480;-99.240;2022-11-20T01:55:17;77845.94;;;26.28
73673;BMP280;61972;19.480;-99.240;2022-11-20T01:57:45;77843.69;;;26.26
73673;BMP280;61972;19.480;-99.240;2022-11-20T02:00:16;77854.72;;;26.26
73673;BMP280;61972;19.480;-99.240;2022-11-20T02:02:47;77847.25;;;26.24
73673;BMP280;61972;19.480;-99.240;2022-11-20T02:05:56;77861.31;;;26.23
73673;BMP280;61972;19.480;-99.240;2022-11-20T02:08:29;77859.25;;;26.23
73673;BMP280;61972;19.480;-99.240;2022-11-20T02:10:58;77859.78;;;26.24
73673;BMP280;61972;19.480;-99.240;2022-11-20T02:13:24;77874.97;;;26.23
73673;BMP280;61972;19.480;-99.240;2022-11-20T02:16:12;77875.91;;;26.21
73673;BMP280;61972;19.480;-99.240;2022-11-20T02:18:40;77875.91;;;26.21
73673;BMP280;61972;19.480;-99.240;2022-11-20T02:24:04;77881.53;;;26.19
73673;BMP280;61972;19.480;-99.240;2022-11-20T02:26:33;77880.97;;;26.19
73673;BMP280;61972;19.480;-99.240;2022-11-20T02:29:02;77883.44;;;26.16
73673;BMP280;61972;19.480;-99.240;2022-11-20T02:31:28;77881.94;;;26.17
73673;BMP280;61972;19.480;-99.240;2022-11-20T02:33:56;77880.81;;;26.16
73673;BMP280;61972;19.480;-99.240;2022-11-20T02:36:24;77883.81;;;26.14
73673;BMP280;61972;19.480;-99.240;2022-11-20T02:38:52;77881.19;;;26.14
73673;BMP280;61972;19.480;-99.240;2022-11-20T02:41:18;77892.06;;;26.12
73673;BMP280;61972;19.480;-99.240;2022-11-20T02:43:44;77892.06;;;26.12
73673;BMP280;61972;19.480;-99.240;2022-11-20T02:46:10;77890.94;;;26.11
73673;BMP280;61972;19.480;-99.240;2022-11-20T02:48:39;77900.28;;;26.10
73673;BMP280;61972;19.480;-99.240;2022-11-20T02:51:05;77896.03;;;26.09
73673;BMP280;61972;19.480;-99.240;2022-11-20T02:53:31;77892.28;;;26.08
73673;BMP280;61972;19.480;-99.240;2022-11-20T02:56:00;77887.59;;;26.08
73673;BMP280;61972;19.480;-99.240;2022-11-20T02:58:26;77887.03;;;26.08
73673;BMP280;61972;19.480;-99.240;2022-11-20T03:00:52;77896.41;;;26.07
73673;BMP280;61972;19.480;-99.240;2022-11-20T03:03:18;77898.84;;;26.04
73673;BMP280;61972;19.480;-99.240;2022-11-20T03:05:44;77904.09;;;26.04
73673;BMP280;61972;19.480;-99.240;2022-11-20T03:08:10;77902.97;;;26.03
73673;BMP280;61972;19.480;-99.240;2022-11-20T03:10:36;77900.75;;;26.01
73673;BMP280;61972;19.480;-99.240;2022-11-20T03:13:02;77904.84;;;26.00
73673;BMP280;61972;19.480;-99.240;2022-11-20T03:15:28;77909.00;;;25.99
73673;BMP280;61972;19.480;-99.240;2022-11-20T03:17:55;77911.59;;;25.99
73673;BMP280;61972;19.480;-99.240;2022-11-20T03:20:21;77907.88;;;25.98
73673;BMP280;61972;19.480;-99.240;2022-11-20T03:22:48;77914.75;;;25.99
73673;BMP280;61972;19.480;-99.240;2022-11-20T03:25:17;77913.09;;;25.98
73673;BMP280;61972;19.480;-99.240;2022-11-20T03:27:43;77913.09;;;25.98
73673;BMP280;61972;19.480;-99.240;2022-11-20T03:30:12;77911.97;;;25.97
73673;BMP280;61972;19.480;-99.240;2022-11-20T03:32:41;77913.47;;;25.96
73673;BMP280;61972;19.480;-99.240;2022-11-20T03:35:07;77930.69;;;25.95
73673;BMP280;61972;19.480;-99.240;2022-11-20T03:37:34;77929.56;;;25.94
73673;BMP280;61972;19.480;-99.240;2022-11-20T03:40:00;77933.69;;;25.93
73673;BMP280;61972;19.480;-99.240;2022-11-20T03:42:26;77940.47;;;25.92
73673;BMP280;61972;19.480;-99.240;2022-11-20T03:45:10;77932.59;;;25.92
73673;BMP280;61972;19.480;-99.240;2022-11-20T03:47:40;77938.22;;;25.90
73673;BMP280;61972;19.480;-99.240;2022-11-20T03:50:10;77938.22;;;25.90
73673;BMP280;61972;19.480;-99.240;2022-11-20T03:52:38;77935.59;;;25.90
73673;BMP280;61972;19.480;-99.240;2022-11-20T03:55:05;77934.47;;;25.89
73673;BMP280;61972;19.480;-99.240;2022-11-20T03:57:33;77945.50;;;25.89
73673;BMP280;61972;19.480;-99.240;2022-11-20T04:00:00;77933.34;;;25.88
73673;BMP280;61972;19.480;-99.240;2022-11-20T04:02:26;77928.50;;;25.86
73673;BMP280;61972;19.480;-99.240;2022-11-20T04:04:52;77936.34;;;25.86
73673;BMP280;61972;19.480;-99.240;2022-11-20T04:07:18;77928.88;;;25.83
73673;BMP280;61972;19.480;-99.240;2022-11-20T04:09:44;77930.00;;;25.84
73673;BMP280;61972;19.480;-99.240;2022-11-20T04:12:10;77931.66;;;25.86
73673;BMP280;61972;19.480;-99.240;2022-11-20T04:14:37;77932.78;;;25.87
73673;BMP280;61972;19.480;-99.240;2022-11-20T04:17:03;77933.91;;;25.88
73673;BMP280;61972;19.480;-99.240;2022-11-20T04:19:33;77932.78;;;25.87
73673;BMP280;61972;19.480;-99.240;2022-11-20T04:21:59;77931.66;;;25.86
73673;BMP280;61972;19.480;-99.240;2022-11-20T04:24:41;77941.59;;;25.86
73673;BMP280;61972;19.480;-99.240;2022-11-20T04:27:14;77934.13;;;25.83
73673;BMP280;61972;19.480;-99.240;2022-11-20T04:29:41;77930.38;;;25.82
73673;BMP280;61972;19.480;-99.240;2022-11-20T04:32:07;77931.91;;;25.81
73673;BMP280;61972;19.480;-99.240;2022-11-20T04:34:33;77931.91;;;25.81
73673;BMP280;61972;19.480;-99.240;2022-11-20T04:36:59;77923.50;;;25.81
73673;BMP280;61972;19.480;-99.240;2022-11-20T04:39:25;77922.91;;;25.80
73673;BMP280;61972;19.480;-99.240;2022-11-20T04:41:52;77922.91;;;25.80
73673;BMP280;61972;19.480;-99.240;2022-11-20T04:44:37;77916.56;;;25.79
73673;BMP280;61972;19.480;-99.240;2022-11-20T04:47:13;77912.28;;;25.78
73673;BMP280;61972;19.480;-99.240;2022-11-20T04:49:39;77914.34;;;25.77
73673;BMP280;61972;19.480;-99.240;2022-11-20T04:52:05;77913.78;;;25.77
73673;BMP280;61972;19.480;-99.240;2022-11-20T04:54:32;77919.94;;;25.75
73673;BMP280;61972;19.480;-99.240;2022-11-20T04:56:58;77917.72;;;25.73
73673;BMP280;61972;19.480;-99.240;2022-11-20T04:59:24;77908.75;;;25.72
73673;BMP280;61972;19.480;-99.240;2022-11-20T05:01:50;77908.75;;;25.72
73673;BMP280;61972;19.480;-99.240;2022-11-20T05:04:16;77912.88;;;25.71
73673;BMP280;61972;19.480;-99.240;2022-11-20T05:06:52;77903.34;;;25.70
73673;BMP280;61972;19.480;-99.240;2022-11-20T05:09:18;77913.25;;;25.69
73673;BMP280;61972;19.480;-99.240;2022-11-20T05:11:44;77905.41;;;25.69
73673;BMP280;61972;19.480;-99.240;2022-11-20T05:14:10;77912.16;;;25.68
73673;BMP280;61972;19.480;-99.240;2022-11-20T05:16:36;77914.22;;;25.68
73673;BMP280;61972;19.480;-99.240;2022-11-20T05:19:02;77922.63;;;25.68
73673;BMP280;61972;19.480;-99.240;2022-11-20T05:21:30;77915.69;;;25.67
73673;BMP280;61972;19.480;-99.240;2022-11-20T05:23:57;77919.25;;;25.65
73673;BMP280;61972;19.480;-99.240;2022-11-20T05:26:24;77919.25;;;25.65
73673;BMP280;61972;19.480;-99.240;2022-11-20T05:28:50;77915.16;;;25.66
73673;BMP280;61972;19.480;-99.240;2022-11-20T05:31:22;77912.53;;;25.66
73673;BMP280;61972;19.480;-99.240;2022-11-20T05:33:51;77906.19;;;25.65
73673;BMP280;61972;19.480;-99.240;2022-11-20T05:36:20;77908.25;;;25.64
73673;BMP280;61972;19.480;-99.240;2022-11-20T05:38:46;77905.06;;;25.64
73673;BMP280;61972;19.480;-99.240;2022-11-20T05:41:17;77912.94;;;25.64
73673;BMP280;61972;19.480;-99.240;2022-11-20T05:43:48;77913.84;;;25.62
73673;BMP280;61972;19.480;-99.240;2022-11-20T05:46:16;77907.47;;;25.61
73673;BMP280;61972;19.480;-99.240;2022-11-20T05:48:44;77911.06;;;25.60
73673;BMP280;61972;19.480;-99.240;2022-11-20T05:51:12;77912.56;;;25.59
73673;BMP280;61972;19.480;-99.240;2022-11-20T05:53:39;77908.28;;;25.57
73673;BMP280;61972;19.480;-99.240;2022-11-20T05:56:16;77898.75;;;25.56
73673;BMP280;61972;19.480;-99.240;2022-11-20T05:58:43;77898.19;;;25.55
73673;BMP280;61972;19.480;-99.240;2022-11-20T06:01:19;77900.22;;;25.55
73673;BMP280;61972;19.480;-99.240;2022-11-20T06:03:45;77900.22;;;25.55
73673;BMP280;61972;19.480;-99.240;2022-11-20T06:06:14;77895.41;;;25.53
73673;BMP280;61972;19.480;-99.240;2022-11-20T06:09:02;77895.41;;;25.53
73673;BMP280;61972;19.480;-99.240;2022-11-20T06:11:27;77898.56;;;25.53
73673;BMP280;61972;19.480;-99.240;2022-11-20T06:13:53;77895.41;;;25.53
73673;BMP280;61972;19.480;-99.240;2022-11-20T06:16:22;77899.50;;;25.52
73673;BMP280;61972;19.480;-99.240;2022-11-20T06:18:51;77896.91;;;25.52
73673;BMP280;61972;19.480;-99.240;2022-11-20T06:21:21;77890.56;;;25.51
73673;BMP280;61972;19.480;-99.240;2022-11-20T06:23:48;77890.56;;;25.51
73673;BMP280;61972;19.480;-99.240;2022-11-20T06:26:20;77890.56;;;25.51
73673;BMP280;61972;19.480;-99.240;2022-11-20T06:28:47;77887.94;;;25.51
73673;BMP280;61972;19.480;-99.240;2022-11-20T06:31:15;77876.34;;;25.50
73673;BMP280;61972;19.480;-99.240;2022-11-20T06:33:49;77881.59;;;25.50
73673;BMP280;61972;19.480;-99.240;2022-11-20T06:36:18;77885.69;;;25.49
73673;BMP280;61972;19.480;-99.240;2022-11-20T06:38:44;77889.81;;;25.47
73673;BMP280;61972;19.480;-99.240;2022-11-20T06:41:13;77884.56;;;25.47
73673;BMP280;61972;19.480;-99.240;2022-11-20T06:43:40;77883.47;;;25.46
73673;BMP280;61972;19.480;-99.240;2022-11-20T06:46:06;77875.63;;;25.46
73673;BMP280;61972;19.480;-99.240;2022-11-20T06:48:32;77881.22;;;25.44
73673;BMP280;61972;19.480;-99.240;2022-11-20T06:50:59;77880.13;;;25.43
73673;BMP280;61972;19.480;-99.240;2022-11-20T06:53:25;77879.00;;;25.42
73673;BMP280;61972;19.480;-99.240;2022-11-20T06:55:51;77871.53;;;25.40
73673;BMP280;61972;19.480;-99.240;2022-11-20T06:58:18;77871.94;;;25.38
73673;BMP280;61972;19.480;-99.240;2022-11-20T07:00:47;77871.94;;;25.38
73673;BMP280;61972;19.480;-99.240;2022-11-20T07:03:13;77864.47;;;25.36
73673;BMP280;61972;19.480;-99.240;2022-11-20T07:05:39;77865.38;;;25.35
73673;BMP280;61972;19.480;-99.240;2022-11-20T07:08:09;77870.47;;;25.32
73673;BMP280;61972;19.480;-99.240;2022-11-20T07:10:35;77865.22;;;25.32
73673;BMP280;61972;19.480;-99.240;2022-11-20T07:13:01;77863.56;;;25.31
73673;BMP280;61972;19.480;-99.240;2022-11-20T07:15:30;77870.28;;;25.30
73673;BMP280;61972;19.480;-99.240;2022-11-20T07:17:59;77864.50;;;25.29
73673;BMP280;61972;19.480;-99.240;2022-11-20T07:20:28;77854.97;;;25.27
73673;BMP280;61972;19.480;-99.240;2022-11-20T07:22:55;77855.94;;;25.26
73673;BMP280;61972;19.480;-99.240;2022-11-20T07:25:22;77846.97;;;25.25
73673;BMP280;61972;19.480;-99.240;2022-11-20T07:27:48;77838.00;;;25.24
73673;BMP280;61972;19.480;-99.240;2022-11-20T07:30:15;77838.00;;;25.24
73673;BMP280;61972;19.480;-99.240;2022-11-20T07:32:41;77830.53;;;25.22
73673;BMP280;61972;19.480;-99.240;2022-11-20T07:35:08;77829.97;;;25.21
73673;BMP280;61972;19.480;-99.240;2022-11-20T07:37:34;77829.41;;;25.21
73673;BMP280;61972;19.480;-99.240;2022-11-20T07:40:00;77829.41;;;25.21
73673;BMP280;61972;19.480;-99.240;2022-11-20T07:42:26;77828.84;;;25.20
73673;BMP280;61972;19.480;-99.240;2022-11-20T07:44:53;77827.19;;;25.19
73673;BMP280;61972;19.480;-99.240;2022-11-20T07:47:19;77817.66;;;25.17
73673;BMP280;61972;19.480;-99.240;2022-11-20T07:49:45;77824.94;;;25.17
73673;BMP280;61972;19.480;-99.240;2022-11-20T07:52:11;77821.22;;;25.16
73673;BMP280;61972;19.480;-99.240;2022-11-20T07:54:37;77815.44;;;25.15
73673;BMP280;61972;19.480;-99.240;2022-11-20T07:57:06;77821.59;;;25.14
73673;BMP280;61972;19.480;-99.240;2022-11-20T07:59:32;77826.25;;;25.13
73673;BMP280;61972;19.480;-99.240;2022-11-20T08:02:01;77833.94;;;25.10
73673;BMP280;61972;19.480;-99.240;2022-11-20T08:04:30;77830.22;;;25.09
73673;BMP280;61972;19.480;-99.240;2022-11-20T08:06:56;77827.03;;;25.09
73673;BMP280;61972;19.480;-99.240;2022-11-20T08:09:24;77821.78;;;25.09
73673;BMP280;61972;19.480;-99.240;2022-11-20T08:11:50;77820.13;;;25.07
73673;BMP280;61972;19.480;-99.240;2022-11-20T08:14:38;77825.38;;;25.07
73673;BMP280;61972;19.480;-99.240;2022-11-20T08:17:04;77826.31;;;25.06
73673;BMP280;61972;19.480;-99.240;2022-11-20T08:19:30;77822.59;;;25.05
73673;BMP280;61972;19.480;-99.240;2022-11-20T08:21:56;77832.47;;;25.04
73673;BMP280;61972;19.480;-99.240;2022-11-20T08:24:22;77823.50;;;25.03
73673;BMP280;61972;19.480;-99.240;2022-11-20T08:26:48;77822.97;;;25.03
73673;BMP280;61972;19.480;-99.240;2022-11-20T08:29:14;77825.97;;;25.01
73673;BMP280;61972;19.480;-99.240;2022-11-20T08:31:41;77811.75;;;25.00
73673;BMP280;61972;19.480;-99.240;2022-11-20T08:34:10;77818.47;;;24.99
73673;BMP280;61972;19.480;-99.240;2022-11-20T08:36:36;77815.88;;;24.99
73673;BMP280;61972;19.480;-99.240;2022-11-20T08:39:03;77815.31;;;24.98
73673;BMP280;61972;19.480;-99.240;2022-11-20T08:41:29;77805.81;;;24.97
73673;BMP280;61972;19.480;-99.240;2022-11-20T08:44:03;77813.09;;;24.96
73673;BMP280;61972;19.480;-99.240;2022-11-20T08:46:34;77820.94;;;24.96
73673;BMP280;61972;19.480;-99.240;2022-11-20T08:49:03;77813.47;;;24.94
73673;BMP280;61972;19.480;-99.240;2022-11-20T08:51:33;77819.66;;;24.92
73673;BMP280;61972;19.480;-99.240;2022-11-20T08:53:59;77819.06;;;24.92
73673;BMP280;61972;19.480;-99.240;2022-11-20T08:56:25;77817.41;;;24.90
73673;BMP280;61972;19.480;-99.240;2022-11-20T08:58:51;77824.88;;;24.92
73673;BMP280;61972;19.480;-99.240;2022-11-20T09:01:19;77822.25;;;24.92
73673;BMP280;61972;19.480;-99.240;2022-11-20T09:03:45;77824.69;;;24.90
73673;BMP280;61972;19.480;-99.240;2022-11-20T09:06:12;77827.31;;;24.90
73673;BMP280;61972;19.480;-99.240;2022-11-20T09:08:38;77829.91;;;24.90
73673;BMP280;61972;19.480;-99.240;2022-11-20T09:11:05;77831.41;;;24.89
73673;BMP280;61972;19.480;-99.240;2022-11-20T09:13:32;77834.44;;;24.87
73673;BMP280;61972;19.480;-99.240;2022-11-20T09:16:07;77830.84;;;24.88
73673;BMP280;61972;19.480;-99.240;2022-11-20T09:18:35;77836.63;;;24.89
73673;BMP280;61972;19.480;-99.240;2022-11-20T09:21:10;77838.09;;;24.95
73673;BMP280;61972;19.480;-99.240;2022-11-20T09:23:38;77837.34;;;24.99
73673;BMP280;61972;19.480;-99.240;2022-11-20T09:26:05;77832.47;;;25.04
73673;BMP280;61972;19.480;-99.240;2022-11-20T09:28:32;77831.72;;;25.08
73673;BMP280;61972;19.480;-99.240;2022-11-20T09:30:59;77823.50;;;25.10
73673;BMP280;61972;19.480;-99.240;2022-11-20T09:33:26;77829.44;;;25.14
73673;BMP280;61972;19.480;-99.240;2022-11-20T09:35:52;77826.06;;;25.18
73673;BMP280;61972;19.480;-99.240;2022-11-20T09:38:18;77830.53;;;25.22
73673;BMP280;61972;19.480;-99.240;2022-11-20T09:40:51;77830.47;;;25.36
73673;BMP280;61972;19.480;-99.240;2022-11-20T09:46:35;77834.13;;;25.52
73673;BMP280;61972;19.480;-99.240;2022-11-20T09:54:36;77839.03;;;25.39
73673;BMP280;61972;19.480;-99.240;2022-11-20T09:57:10;77835.69;;;25.36
73673;BMP280;61972;19.480;-99.240;2022-11-20T09:59:44;77830.84;;;25.34
73673;BMP280;61972;19.480;-99.240;2022-11-20T10:02:42;77829.72;;;25.33
73673;BMP280;61972;19.480;-99.240;2022-11-20T10:10:34;77840.09;;;25.47
73673;BMP280;61972;19.480;-99.240;2022-11-20T10:21:23;77846.03;;;25.58
73673;BMP280;61972;19.480;-99.240;2022-11-20T10:27:02;77843.41;;;25.58
73673;BMP280;61972;19.480;-99.240;2022-11-20T10:29:34;77848.09;;;25.57
73673;BMP280;61972;19.480;-99.240;2022-11-20T10:32:04;77846.03;;;25.58
73673;BMP280;61972;19.480;-99.240;2022-11-20T10:34:50;77843.41;;;25.58
73673;BMP280;61972;19.480;-99.240;2022-11-20T10:37:25;77846.03;;;25.58
73673;BMP280;61972;19.480;-99.240;2022-11-20T10:40:01;77853.88;;;25.58
73673;BMP280;61972;19.480;-99.240;2022-11-20T10:48:09;77850.16;;;25.57
73673;BMP280;61972;19.480;-99.240;2022-11-20T10:50:47;77849.03;;;25.56
73673;BMP280;61972;19.480;-99.240;2022-11-20T10:56:16;77852.03;;;25.54
73673;BMP280;61972;19.480;-99.240;2022-11-20T11:01:18;77847.75;;;25.52
73673;BMP280;61972;19.480;-99.240;2022-11-20T11:03:47;77851.47;;;25.53
73673;BMP280;61972;19.480;-99.240;2022-11-20T11:06:42;77849.25;;;25.51
73673;BMP280;61972;19.480;-99.240;2022-11-20T11:09:15;77853.53;;;25.53
73673;BMP280;61972;19.480;-99.240;2022-11-20T11:11:42;77855.59;;;25.52
73673;BMP280;61972;19.480;-99.240;2022-11-20T11:14:10;77854.47;;;25.51
73673;BMP280;61972;19.480;-99.240;2022-11-20T11:16:52;77850.75;;;25.50
73673;BMP280;61972;19.480;-99.240;2022-11-20T11:19:18;77855.44;;;25.50
73673;BMP280;61972;19.480;-99.240;2022-11-20T11:21:56;77849.06;;;25.49
73673;BMP280;61972;19.480;-99.240;2022-11-20T11:24:26;77858.41;;;25.47
73673;BMP280;61972;19.480;-99.240;2022-11-20T11:26:59;77853.19;;;25.47
73673;BMP280;61972;19.480;-99.240;2022-11-20T11:29:30;77854.16;;;25.46
73673;BMP280;61972;19.480;-99.240;2022-11-20T11:32:06;77856.19;;;25.45
73673;BMP280;61972;19.480;-99.240;2022-11-20T11:34:32;77862.53;;;25.46
73673;BMP280;61972;19.480;-99.240;2022-11-20T11:36:59;77855.06;;;25.44
73673;BMP280;61972;19.480;-99.240;2022-11-20T11:39:27;77867.59;;;25.44
73673;BMP280;61972;19.480;-99.240;2022-11-20T11:41:54;77876.00;;;25.44
73673;BMP280;61972;19.480;-99.240;2022-11-20T11:47:24;77875.25;;;25.41
73673;BMP280;61972;19.480;-99.240;2022-11-20T11:52:43;77884.22;;;25.42
73673;BMP280;61972;19.480;-99.240;2022-11-20T11:55:17;77889.47;;;25.42
73673;BMP280;61972;19.480;-99.240;2022-11-20T11:57:55;77894.13;;;25.42
73673;BMP280;61972;19.480;-99.240;2022-11-20T12:00:23;77894.13;;;25.42
73673;BMP280;61972;19.480;-99.240;2022-11-20T12:03:12;77893.25;;;25.36
73673;BMP280;61972;19.480;-99.240;2022-11-20T12:05:47;77897.72;;;25.33
73673;BMP280;61972;19.480;-99.240;2022-11-20T12:16:45;77917.41;;;25.15
73673;BMP280;61972;19.480;-99.240;2022-11-20T12:19:13;77922.84;;;25.10
73673;BMP280;61972;19.480;-99.240;2022-11-20T12:44:08;77945.88;;;24.74
73673;BMP280;61972;19.480;-99.240;2022-11-20T12:47:03;77944.56;;;24.70
73673;BMP280;61972;19.480;-99.240;2022-11-20T12:49:45;77945.31;;;24.66
73673;BMP280;61972;19.480;-99.240;2022-11-20T13:00:22;77958.19;;;24.57
73673;BMP280;61972;19.480;-99.240;2022-11-20T13:03:34;77967.53;;;24.55
73673;BMP280;61972;19.480;-99.240;2022-11-20T13:06:18;77966.97;;;24.55
73673;BMP280;61972;19.480;-99.240;2022-11-20T13:09:04;77970.34;;;24.51
73673;BMP280;61972;19.480;-99.240;2022-11-20T13:17:24;77981.53;;;24.40
73673;BMP280;61972;19.480;-99.240;2022-11-20T13:19:56;77979.28;;;24.37
73673;BMP280;61972;19.480;-99.240;2022-11-20T13:22:25;77984.31;;;24.35
73673;BMP280;61972;19.480;-99.240;2022-11-20T13:24:52;77982.63;;;24.33
73673;BMP280;61972;19.480;-99.240;2022-11-20T13:27:21;77988.25;;;24.31
73673;BMP280;61972;19.480;-99.240;2022-11-20T13:30:12;77991.22;;;24.29
73673;BMP280;61972;19.480;-99.240;2022-11-20T13:32:57;77993.06;;;24.26
73673;BMP280;61972;19.480;-99.240;2022-11-20T13:35:37;77994.56;;;24.25
73673;BMP280;61972;19.480;-99.240;2022-11-20T13:38:11;77997.19;;;24.25
73673;BMP280;61972;19.480;-99.240;2022-11-20T13:40:50;78000.16;;;24.23
73673;BMP280;61972;19.480;-99.240;2022-11-20T13:46:03;78012.47;;;24.20
73673;BMP280;61972;19.480;-99.240;2022-11-20T13:48:34;78015.09;;;24.20
73673;BMP280;61972;19.480;-99.240;2022-11-20T13:56:55;78028.88;;;24.16
73673;BMP280;61972;19.480;-99.240;2022-11-20T13:59:43;78037.66;;;24.14
73673;BMP280;61972;19.480;-99.240;2022-11-20T14:02:20;78039.69;;;24.14
73673;BMP280;61972;19.480;-99.240;2022-11-20T14:04:49;78049.56;;;24.13
73673;BMP280;61972;19.480;-99.240;2022-11-20T14:07:18;78045.84;;;24.12
73673;BMP280;61972;19.480;-99.240;2022-11-20T14:09:56;78050.47;;;24.12
73673;BMP280;61972;19.480;-99.240;2022-11-20T14:12:28;78049.38;;;24.11
73673;BMP280;61972;19.480;-99.240;2022-11-20T14:14:55;78055.16;;;24.11
73673;BMP280;61972;19.480;-99.240;2022-11-20T14:17:24;78057.19;;;24.11
73673;BMP280;61972;19.480;-99.240;2022-11-20T14:19:58;78061.28;;;24.10
73673;BMP280;61972;19.480;-99.240;2022-11-20T14:22:26;78065.78;;;24.07
73673;BMP280;61972;19.480;-99.240;2022-11-20T14:27:45;78063.31;;;24.02
73673;BMP280;61972;19.480;-99.240;2022-11-20T14:30:25;78075.25;;;24.01
73673;BMP280;61972;19.480;-99.240;2022-11-20T14:32:54;78081.03;;;24.02
73673;BMP280;61972;19.480;-99.240;2022-11-20T14:37:50;78084.59;;;24.00
73673;BMP280;61972;19.480;-99.240;2022-11-20T14:40:34;78092.78;;;23.98
73673;BMP280;61972;19.480;-99.240;2022-11-20T14:43:24;78093.13;;;23.96
73673;BMP280;61972;19.480;-99.240;2022-11-20T14:45:59;78106.72;;;23.96
73673;BMP280;61972;19.480;-99.240;2022-11-20T14:48:31;78111.41;;;23.96
73673;BMP280;61972;19.480;-99.240;2022-11-20T14:50:58;78109.72;;;23.94
73673;BMP280;61972;19.480;-99.240;2022-11-20T14:53:25;78111.22;;;23.93
73673;BMP280;61972;19.480;-99.240;2022-11-20T14:55:59;78112.72;;;23.92
73673;BMP280;61972;19.480;-99.240;2022-11-20T14:58:30;78113.59;;;23.91
73673;BMP280;61972;19.480;-99.240;2022-11-20T15:01:05;78116.78;;;23.91
73673;BMP280;61972;19.480;-99.240;2022-11-20T15:03:59;78119.75;;;23.89
73673;BMP280;61972;19.480;-99.240;2022-11-20T15:06:26;78117.16;;;23.89
73673;BMP280;61972;19.480;-99.240;2022-11-20T15:08:53;78120.31;;;23.90
73673;BMP280;61972;19.480;-99.240;2022-11-20T15:11:25;78120.88;;;23.90
73673;BMP280;61972;19.480;-99.240;2022-11-20T15:13:51;78119.19;;;23.89
73673;BMP280;61972;19.480;-99.240;2022-11-20T15:16:19;78124.97;;;23.89
73673;BMP280;61972;19.480;-99.240;2022-11-20T15:18:46;78124.97;;;23.89
73673;BMP280;61972;19.480;-99.240;2022-11-20T15:21:15;78130.94;;;23.85
73673;BMP280;61972;19.480;-99.240;2022-11-20T15:23:42;78124.59;;;23.84
73673;BMP280;61972;19.480;-99.240;2022-11-20T15:26:10;78124.38;;;23.81
73673;BMP280;61972;19.480;-99.240;2022-11-20T15:28:40;78124.19;;;23.79
73673;BMP280;61972;19.480;-99.240;2022-11-20T15:31:09;78123.63;;;23.78
73673;BMP280;61972;19.480;-99.240;2022-11-20T15:33:35;78131.25;;;23.76
73673;BMP280;61972;19.480;-99.240;2022-11-20T15:36:01;78125.28;;;23.73
73673;BMP280;61972;19.480;-99.240;2022-11-20T15:38:27;78127.31;;;23.72
73673;BMP280;61972;19.480;-99.240;2022-11-20T15:40:53;78132.88;;;23.70
73673;BMP280;61972;19.480;-99.240;2022-11-20T15:43:19;78132.72;;;23.68
73673;BMP280;61972;19.480;-99.240;2022-11-20T15:45:55;78132.13;;;23.67